St-Hubert, Belgium
Current Conditions -  °F | °C
As of 3:55 AM on Monday 22 Dec 2014 (Local Time) from EBFS Reporting Station
Broken Clouds Broken Clouds  
Wind Chill:   Ceiling: 700
Heat Index:   Visibility: 2.2mi
Dew Point:   Wind: 18mph
Humidity: 93%   Direction: 230°SW
Pressure: 30.27"   Gusts: NA
Location:  50.03°N, 5.4°E
Report Text: EBFS 220255Z AUTO 23016KT 3600 SCT005/// BKN007/// BKN009/// 06/05 Q1025 YLO
Loading
Personal Weather Stations






























Interactive Weather Map New forecast layout! Learn more

10-Day Weather Forecast

Advertisements
Track Severe Weather on mobile